sensor_id;sensor_type;location;lat;lon;timestamp;pressure;altitude;pressure_sealevel;temperature;humidity
44103;BME280;29769;42.178;24.742;2022-10-17T00:02:31;101057.59;;;6.50;100.00
44103;BME280;29769;42.178;24.742;2022-10-17T00:05:15;101066.09;;;6.40;100.00
44103;BME280;29769;42.178;24.742;2022-10-17T00:08:00;101064.16;;;6.31;100.00
44103;BME280;29769;42.178;24.742;2022-10-17T00:10:44;101069.84;;;6.15;100.00
44103;BME280;29769;42.178;24.742;2022-10-17T00:13:29;101073.03;;;6.03;100.00
44103;BME280;29769;42.178;24.742;2022-10-17T00:16:17;101075.41;;;5.94;100.00
44103;BME280;29769;42.178;24.742;2022-10-17T00:19:06;101074.41;;;5.89;100.00
44103;BME280;29769;42.178;24.742;2022-10-17T00:21:51;101073.19;;;5.76;100.00
44103;BME280;29769;42.178;24.742;2022-10-17T00:24:36;101081.44;;;5.60;100.00
44103;BME280;29769;42.178;24.742;2022-10-17T00:27:21;101076.63;;;5.43;100.00
44103;BME280;29769;42.178;24.742;2022-10-17T00:30:06;101074.34;;;5.23;100.00
44103;BME280;29769;42.178;24.742;2022-10-17T00:32:51;101078.66;;;5.23;100.00
44103;BME280;29769;42.178;24.742;2022-10-17T00:35:36;101074.06;;;5.13;100.00
44103;BME280;29769;42.178;24.742;2022-10-17T00:38:21;101079.22;;;5.11;100.00
44103;BME280;29769;42.178;24.742;2022-10-17T00:41:06;101074.00;;;5.11;100.00
44103;BME280;29769;42.178;24.742;2022-10-17T00:46:39;101076.19;;;5.27;100.00
44103;BME280;29769;42.178;24.742;2022-10-17T00:49:27;101076.53;;;5.40;100.00
44103;BME280;29769;42.178;24.742;2022-10-17T00:52:16;101078.28;;;5.41;100.00
44103;BME280;29769;42.178;24.742;2022-10-17T00:55:06;101074.84;;;5.42;100.00
44103;BME280;29769;42.178;24.742;2022-10-17T00:57:53;101084.06;;;5.29;100.00
44103;BME280;29769;42.178;24.742;2022-10-17T01:00:39;101079.41;;;5.19;100.00
44103;BME280;29769;42.178;24.742;2022-10-17T01:03:24;101070.72;;;5.18;100.00
44103;BME280;29769;42.178;24.742;2022-10-17T01:06:09;101084.69;;;5.20;100.00
44103;BME280;29769;42.178;24.742;2022-10-17T01:08:53;101081.38;;;5.26;100.00
44103;BME280;29769;42.178;24.742;2022-10-17T01:11:42;101080.00;;;5.38;100.00
44103;BME280;29769;42.178;24.742;2022-10-17T01:14:36;101088.00;;;5.45;100.00
44103;BME280;29769;42.178;24.742;2022-10-17T01:26:01;101078.91;;;5.95;100.00
44103;BME280;29769;42.178;24.742;2022-10-17T01:34:44;101089.22;;;5.27;100.00
44103;BME280;29769;42.178;24.742;2022-10-17T01:37:34;101095.13;;;5.20;100.00
44103;BME280;29769;42.178;24.742;2022-10-17T01:43:25;101092.31;;;5.13;100.00
44103;BME280;29769;42.178;24.742;2022-10-17T01:46:14;101091.44;;;5.12;100.00
44103;BME280;29769;42.178;24.742;2022-10-17T01:49:00;101092.13;;;5.07;100.00
44103;BME280;29769;42.178;24.742;2022-10-17T01:51:57;101091.94;;;5.01;100.00
44103;BME280;29769;42.178;24.742;2022-10-17T01:54:46;101089.47;;;5.05;100.00
44103;BME280;29769;42.178;24.742;2022-10-17T01:57:36;101090.28;;;5.03;100.00
44103;BME280;29769;42.178;24.742;2022-10-17T02:00:21;101096.19;;;4.97;100.00
44103;BME280;29769;42.178;24.742;2022-10-17T02:03:10;101101.41;;;4.97;100.00
44103;BME280;29769;42.178;24.742;2022-10-17T02:05:56;101107.56;;;4.99;100.00
44103;BME280;29769;42.178;24.742;2022-10-17T02:08:42;101110.91;;;4.95;100.00
44103;BME280;29769;42.178;24.742;2022-10-17T02:11:26;101109.91;;;4.91;100.00
44103;BME280;29769;42.178;24.742;2022-10-17T02:17:13;101111.75;;;4.94;100.00
44103;BME280;29769;42.178;24.742;2022-10-17T02:20:36;101113.47;;;4.93;100.00
44103;BME280;29769;42.178;24.742;2022-10-17T02:26:23;101113.97;;;4.82;100.00
44103;BME280;29769;42.178;24.742;2022-10-17T02:29:12;101116.50;;;4.79;100.00
44103;BME280;29769;42.178;24.742;2022-10-17T02:32:02;101116.00;;;4.64;100.00
44103;BME280;29769;42.178;24.742;2022-10-17T02:34:51;101120.78;;;4.50;100.00
44103;BME280;29769;42.178;24.742;2022-10-17T02:37:38;101125.03;;;4.46;100.00
44103;BME280;29769;42.178;24.742;2022-10-17T02:40:25;101130.38;;;4.51;100.00
44103;BME280;29769;42.178;24.742;2022-10-17T02:43:13;101135.72;;;4.54;100.00
44103;BME280;29769;42.178;24.742;2022-10-17T02:45:58;101144.50;;;4.58;100.00
44103;BME280;29769;42.178;24.742;2022-10-17T02:48:45;101147.19;;;4.61;100.00
44103;BME280;29769;42.178;24.742;2022-10-17T02:51:35;101155.09;;;4.64;100.00
44103;BME280;29769;42.178;24.742;2022-10-17T02:57:24;101149.03;;;4.63;100.00
44103;BME280;29769;42.178;24.742;2022-10-17T03:00:12;101149.88;;;4.62;100.00
44103;BME280;29769;42.178;24.742;2022-10-17T03:02:58;101156.13;;;4.69;100.00
44103;BME280;29769;42.178;24.742;2022-10-17T03:05:43;101145.53;;;4.63;100.00
44103;BME280;29769;42.178;24.742;2022-10-17T03:08:27;101148.78;;;4.56;100.00
44103;BME280;29769;42.178;24.742;2022-10-17T03:11:13;101153.38;;;4.64;100.00
44103;BME280;29769;42.178;24.742;2022-10-17T03:13:58;101156.53;;;4.81;100.00
44103;BME280;29769;42.178;24.742;2022-10-17T03:16:44;101158.56;;;4.91;100.00
44103;BME280;29769;42.178;24.742;2022-10-17T03:19:29;101147.84;;;4.80;100.00
44103;BME280;29769;42.178;24.742;2022-10-17T03:22:14;101155.22;;;4.67;100.00
44103;BME280;29769;42.178;24.742;2022-10-17T03:25:01;101155.91;;;4.61;100.00
44103;BME280;29769;42.178;24.742;2022-10-17T03:27:46;101165.97;;;4.77;100.00
44103;BME280;29769;42.178;24.742;2022-10-17T03:30:30;101163.13;;;4.70;100.00
44103;BME280;29769;42.178;24.742;2022-10-17T03:33:16;101161.78;;;4.56;100.00
44103;BME280;29769;42.178;24.742;2022-10-17T03:36:03;101160.66;;;4.47;100.00
44103;BME280;29769;42.178;24.742;2022-10-17T03:38:52;101161.69;;;4.26;100.00
44103;BME280;29769;42.178;24.742;2022-10-17T03:41:36;101157.34;;;4.01;100.00
44103;BME280;29769;42.178;24.742;2022-10-17T03:44:21;101159.88;;;3.98;100.00
44103;BME280;29769;42.178;24.742;2022-10-17T03:47:06;101169.56;;;4.02;100.00
44103;BME280;29769;42.178;24.742;2022-10-17T03:49:51;101170.69;;;4.10;100.00
44103;BME280;29769;42.178;24.742;2022-10-17T03:52:38;101164.19;;;3.97;100.00
44103;BME280;29769;42.178;24.742;2022-10-17T03:55:23;101165.16;;;3.76;100.00
44103;BME280;29769;42.178;24.742;2022-10-17T03:58:08;101154.69;;;3.50;100.00
44103;BME280;29769;42.178;24.742;2022-10-17T04:00:53;101153.31;;;3.36;100.00
44103;BME280;29769;42.178;24.742;2022-10-17T04:03:37;101161.09;;;3.36;100.00
44103;BME280;29769;42.178;24.742;2022-10-17T04:06:22;101170.09;;;3.44;100.00
44103;BME280;29769;42.178;24.742;2022-10-17T04:09:08;101174.25;;;3.63;100.00
44103;BME280;29769;42.178;24.742;2022-10-17T04:12:07;101173.00;;;3.77;100.00
44103;BME280;29769;42.178;24.742;2022-10-17T04:14:54;101181.69;;;3.78;100.00
44103;BME280;29769;42.178;24.742;2022-10-17T04:17:39;101166.31;;;3.84;100.00
44103;BME280;29769;42.178;24.742;2022-10-17T04:20:24;101180.22;;;3.84;100.00
44103;BME280;29769;42.178;24.742;2022-10-17T04:23:09;101175.16;;;3.89;100.00
44103;BME280;29769;42.178;24.742;2022-10-17T04:25:55;101175.34;;;3.93;100.00
44103;BME280;29769;42.178;24.742;2022-10-17T04:28:40;101182.03;;;3.87;100.00
44103;BME280;29769;42.178;24.742;2022-10-17T04:31:25;101192.25;;;3.81;100.00
44103;BME280;29769;42.178;24.742;2022-10-17T04:34:23;101198.28;;;3.80;100.00
44103;BME280;29769;42.178;24.742;2022-10-17T04:37:07;101195.56;;;3.77;100.00
44103;BME280;29769;42.178;24.742;2022-10-17T04:39:52;101190.03;;;3.68;100.00
44103;BME280;29769;42.178;24.742;2022-10-17T04:42:37;101193.50;;;3.68;100.00
44103;BME280;29769;42.178;24.742;2022-10-17T04:45:22;101197.84;;;3.68;100.00
44103;BME280;29769;42.178;24.742;2022-10-17T04:48:12;101191.44;;;3.59;100.00
44103;BME280;29769;42.178;24.742;2022-10-17T04:50:58;101194.06;;;3.59;100.00
44103;BME280;29769;42.178;24.742;2022-10-17T04:54:04;101199.50;;;3.66;100.00
44103;BME280;29769;42.178;24.742;2022-10-17T04:56:49;101216.16;;;3.94;100.00
44103;BME280;29769;42.178;24.742;2022-10-17T04:59:33;101233.31;;;4.38;100.00
44103;BME280;29769;42.178;24.742;2022-10-17T05:02:41;101225.75;;;4.71;100.00
44103;BME280;29769;42.178;24.742;2022-10-17T05:05:27;101221.25;;;4.94;100.00
44103;BME280;29769;42.178;24.742;2022-10-17T05:08:13;101231.28;;;5.37;100.00
44103;BME280;29769;42.178;24.742;2022-10-17T05:10:57;101233.94;;;5.97;100.00
44103;BME280;29769;42.178;24.742;2022-10-17T05:13:42;101224.22;;;6.57;100.00
44103;BME280;29769;42.178;24.742;2022-10-17T05:16:27;101235.41;;;6.87;100.00
44103;BME280;29769;42.178;24.742;2022-10-17T05:19:12;101242.84;;;7.06;100.00
44103;BME280;29769;42.178;24.742;2022-10-17T05:22:02;101244.00;;;7.56;100.00
44103;BME280;29769;42.178;24.742;2022-10-17T05:24:47;101253.78;;;8.09;100.00
44103;BME280;29769;42.178;24.742;2022-10-17T05:27:31;101266.91;;;8.52;100.00
44103;BME280;29769;42.178;24.742;2022-10-17T05:30:16;101261.69;;;9.06;100.00
44103;BME280;29769;42.178;24.742;2022-10-17T05:33:01;101264.97;;;9.50;100.00
44103;BME280;29769;42.178;24.742;2022-10-17T05:35:46;101269.13;;;10.01;100.00
44103;BME280;29769;42.178;24.742;2022-10-17T05:38:31;101273.94;;;10.34;100.00
44103;BME280;29769;42.178;24.742;2022-10-17T05:41:16;101272.47;;;9.86;100.00
44103;BME280;29769;42.178;24.742;2022-10-17T05:44:01;101282.69;;;10.31;100.00
44103;BME280;29769;42.178;24.742;2022-10-17T05:46:56;101272.94;;;11.16;100.00
44103;BME280;29769;42.178;24.742;2022-10-17T05:49:41;101277.47;;;11.31;100.00
44103;BME280;29769;42.178;24.742;2022-10-17T05:52:25;101275.78;;;11.43;100.00
44103;BME280;29769;42.178;24.742;2022-10-17T05:55:29;101277.78;;;11.82;100.00
44103;BME280;29769;42.178;24.742;2022-10-17T05:58:16;101280.63;;;12.38;100.00
44103;BME280;29769;42.178;24.742;2022-10-17T06:01:04;101291.25;;;12.70;95.34
44103;BME280;29769;42.178;24.742;2022-10-17T06:03:49;101295.66;;;12.82;93.25
44103;BME280;29769;42.178;24.742;2022-10-17T06:06:37;101296.53;;;12.66;92.99
44103;BME280;29769;42.178;24.742;2022-10-17T06:09:22;101293.03;;;12.92;91.64
44103;BME280;29769;42.178;24.742;2022-10-17T06:12:10;101294.81;;;13.03;91.71
44103;BME280;29769;42.178;24.742;2022-10-17T06:14:54;101296.56;;;12.95;91.39
44103;BME280;29769;42.178;24.742;2022-10-17T06:17:39;101300.94;;;12.92;92.69
44103;BME280;29769;42.178;24.742;2022-10-17T06:20:24;101300.97;;;13.33;91.10
44103;BME280;29769;42.178;24.742;2022-10-17T06:23:09;101308.91;;;13.40;90.49
44103;BME280;29769;42.178;24.742;2022-10-17T06:26:14;101300.88;;;13.88;88.02
44103;BME280;29769;42.178;24.742;2022-10-17T06:28:58;101303.38;;;14.20;85.83
44103;BME280;29769;42.178;24.742;2022-10-17T06:31:47;101306.09;;;14.08;86.14
44103;BME280;29769;42.178;24.742;2022-10-17T06:34:32;101314.66;;;14.66;76.66
44103;BME280;29769;42.178;24.742;2022-10-17T06:37:18;101310.59;;;15.32;74.53
44103;BME280;29769;42.178;24.742;2022-10-17T06:40:04;101316.16;;;15.95;71.53
44103;BME280;29769;42.178;24.742;2022-10-17T06:42:49;101322.97;;;16.17;67.26
44103;BME280;29769;42.178;24.742;2022-10-17T06:45:52;101313.19;;;17.40;61.77
44103;BME280;29769;42.178;24.742;2022-10-17T06:48:54;101311.47;;;17.39;60.05
44103;BME280;29769;42.178;24.742;2022-10-17T06:51:58;101309.56;;;17.46;59.02
44103;BME280;29769;42.178;24.742;2022-10-17T06:54:55;101307.94;;;17.37;59.41
44103;BME280;29769;42.178;24.742;2022-10-17T06:57:57;101296.84;;;17.63;56.68
44103;BME280;29769;42.178;24.742;2022-10-17T07:01:01;101309.59;;;17.44;57.98
44103;BME280;29769;42.178;24.742;2022-10-17T07:03:47;101315.19;;;17.80;56.23
44103;BME280;29769;42.178;24.742;2022-10-17T07:06:32;101305.31;;;18.26;55.30
44103;BME280;29769;42.178;24.742;2022-10-17T07:09:22;101313.19;;;18.75;52.24
44103;BME280;29769;42.178;24.742;2022-10-17T07:12:08;101312.47;;;19.39;50.22
44103;BME280;29769;42.178;24.742;2022-10-17T07:14:53;101308.88;;;19.40;50.55
44103;BME280;29769;42.178;24.742;2022-10-17T07:17:37;101312.84;;;19.92;49.13
44103;BME280;29769;42.178;24.742;2022-10-17T07:20:22;101321.00;;;20.49;47.76
44103;BME280;29769;42.178;24.742;2022-10-17T07:23:07;101320.81;;;20.84;45.74
44103;BME280;29769;42.178;24.742;2022-10-17T07:25:58;101315.34;;;21.42;44.18
44103;BME280;29769;42.178;24.742;2022-10-17T07:28:44;101312.31;;;21.26;43.52
44103;BME280;29769;42.178;24.742;2022-10-17T07:31:45;101319.63;;;21.47;43.02
44103;BME280;29769;42.178;24.742;2022-10-17T07:34:32;101324.19;;;22.43;40.76
44103;BME280;29769;42.178;24.742;2022-10-17T07:37:17;101325.84;;;22.69;39.51
44103;BME280;29769;42.178;24.742;2022-10-17T07:40:09;101324.38;;;23.48;38.04
44103;BME280;29769;42.178;24.742;2022-10-17T07:49:34;101311.00;;;22.60;37.86
44103;BME280;29769;42.178;24.742;2022-10-17T07:52:19;101313.47;;;23.73;36.79
44103;BME280;29769;42.178;24.742;2022-10-17T07:55:05;101298.78;;;24.96;34.18
44103;BME280;29769;42.178;24.742;2022-10-17T07:57:51;101302.88;;;25.57;33.00
44103;BME280;29769;42.178;24.742;2022-10-17T08:00:36;101289.28;;;26.26;32.13
44103;BME280;29769;42.178;24.742;2022-10-17T08:03:23;101299.13;;;27.21;30.66
44103;BME280;29769;42.178;24.742;2022-10-17T08:06:08;101298.81;;;25.66;31.81
44103;BME280;29769;42.178;24.742;2022-10-17T08:08:54;101297.09;;;24.57;33.34
44103;BME280;29769;42.178;24.742;2022-10-17T08:11:39;101287.72;;;25.02;32.91
44103;BME280;29769;42.178;24.742;2022-10-17T08:14:24;101259.22;;;24.79;33.09
44103;BME280;29769;42.178;24.742;2022-10-17T08:17:09;101293.56;;;25.63;32.47
44103;BME280;29769;42.178;24.742;2022-10-17T08:19:54;101288.53;;;27.18;30.03
44103;BME280;29769;42.178;24.742;2022-10-17T08:22:39;101290.31;;;28.50;28.31
44103;BME280;29769;42.178;24.742;2022-10-17T08:25:24;101288.47;;;29.32;27.51
44103;BME280;29769;42.178;24.742;2022-10-17T08:28:09;101292.94;;;29.98;26.17
44103;BME280;29769;42.178;24.742;2022-10-17T08:31:01;101293.47;;;29.38;26.54
44103;BME280;29769;42.178;24.742;2022-10-17T08:33:48;101292.59;;;29.90;25.81
44103;BME280;29769;42.178;24.742;2022-10-17T08:36:33;101297.44;;;30.61;24.92
44103;BME280;29769;42.178;24.742;2022-10-17T08:39:18;101289.09;;;32.16;23.55
44103;BME280;29769;42.178;24.742;2022-10-17T08:42:49;101285.16;;;33.39;22.26
44103;BME280;29769;42.178;24.742;2022-10-17T08:45:45;101286.34;;;33.78;21.34
44103;BME280;29769;42.178;24.742;2022-10-17T08:48:38;101274.53;;;33.36;21.50
44103;BME280;29769;42.178;24.742;2022-10-17T08:51:27;101283.91;;;33.12;22.08
44103;BME280;29769;42.178;24.742;2022-10-17T08:54:17;101284.03;;;33.74;21.57
44103;BME280;29769;42.178;24.742;2022-10-17T08:57:04;101284.25;;;34.83;20.56
44103;BME280;29769;42.178;24.742;2022-10-17T08:59:53;101279.53;;;34.54;20.08
44103;BME280;29769;42.178;24.742;2022-10-17T09:03:30;101279.09;;;33.88;21.09
44103;BME280;29769;42.178;24.742;2022-10-17T09:20:19;101263.66;;;32.82;20.93
44103;BME280;29769;42.178;24.742;2022-10-17T09:23:21;101265.88;;;32.88;20.45
44103;BME280;29769;42.178;24.742;2022-10-17T09:26:08;101259.81;;;32.85;20.53
44103;BME280;29769;42.178;24.742;2022-10-17T09:28:56;101257.69;;;33.31;20.64
44103;BME280;29769;42.178;24.742;2022-10-17T09:31:48;101259.44;;;34.65;19.38
44103;BME280;29769;42.178;24.742;2022-10-17T09:34:35;101265.41;;;33.47;19.25
44103;BME280;29769;42.178;24.742;2022-10-17T09:37:26;101251.91;;;32.59;20.66
44103;BME280;29769;42.178;24.742;2022-10-17T09:40:33;101251.41;;;33.72;19.79
44103;BME280;29769;42.178;24.742;2022-10-17T09:43:18;101253.31;;;33.61;19.96
44103;BME280;29769;42.178;24.742;2022-10-17T09:46:14;101252.69;;;33.36;20.15
44103;BME280;29769;42.178;24.742;2022-10-17T09:49:05;101244.84;;;34.45;18.98
44103;BME280;29769;42.178;24.742;2022-10-17T09:51:54;101246.50;;;33.97;18.96
44103;BME280;29769;42.178;24.742;2022-10-17T09:54:49;101248.97;;;34.00;19.43
44103;BME280;29769;42.178;24.742;2022-10-17T09:57:58;101245.56;;;35.06;18.16
44103;BME280;29769;42.178;24.742;2022-10-17T10:00:45;101238.22;;;34.08;18.63
44103;BME280;29769;42.178;24.742;2022-10-17T10:03:31;101240.63;;;34.71;18.09
44103;BME280;29769;42.178;24.742;2022-10-17T10:06:18;101239.69;;;35.11;17.51
44103;BME280;29769;42.178;24.742;2022-10-17T10:09:03;101234.47;;;34.98;17.15
44103;BME280;29769;42.178;24.742;2022-10-17T10:11:50;101234.47;;;34.39;17.67
44103;BME280;29769;42.178;24.742;2022-10-17T10:14:37;101227.88;;;33.19;18.33
44103;BME280;29769;42.178;24.742;2022-10-17T10:17:38;101216.81;;;32.88;18.31
44103;BME280;29769;42.178;24.742;2022-10-17T10:20:30;101220.66;;;34.80;17.21
44103;BME280;29769;42.178;24.742;2022-10-17T10:23:17;101212.34;;;36.60;16.00
44103;BME280;29769;42.178;24.742;2022-10-17T10:26:23;101203.59;;;37.27;15.44
44103;BME280;29769;42.178;24.742;2022-10-17T10:32:31;101207.78;;;35.77;15.00
44103;BME280;29769;42.178;24.742;2022-10-17T10:35:20;101208.41;;;35.98;15.23
44103;BME280;29769;42.178;24.742;2022-10-17T10:38:13;101202.03;;;34.15;16.42
44103;BME280;29769;42.178;24.742;2022-10-17T10:41:09;101198.44;;;35.80;15.73
44103;BME280;29769;42.178;24.742;2022-10-17T10:43:55;101193.09;;;37.23;14.55
44103;BME280;29769;42.178;24.742;2022-10-17T10:46:40;101182.06;;;38.26;13.93
44103;BME280;29769;42.178;24.742;2022-10-17T10:49:30;101189.56;;;36.77;14.52
44103;BME280;29769;42.178;24.742;2022-10-17T10:55:28;101177.53;;;38.43;13.76
44103;BME280;29769;42.178;24.742;2022-10-17T10:58:49;101181.91;;;38.27;13.20
44103;BME280;29769;42.178;24.742;2022-10-17T11:04:54;101169.16;;;38.60;13.52
44103;BME280;29769;42.178;24.742;2022-10-17T11:07:54;101167.41;;;38.43;13.65
44103;BME280;29769;42.178;24.742;2022-10-17T11:16:49;101167.19;;;37.43;13.75
44103;BME280;29769;42.178;24.742;2022-10-17T11:19:41;101165.56;;;38.68;13.50
44103;BME280;29769;42.178;24.742;2022-10-17T11:22:35;101159.75;;;39.28;12.79
44103;BME280;29769;42.178;24.742;2022-10-17T11:25:33;101153.84;;;38.08;13.48
44103;BME280;29769;42.178;24.742;2022-10-17T11:28:20;101146.78;;;38.47;13.53
44103;BME280;29769;42.178;24.742;2022-10-17T11:31:09;101155.53;;;37.49;13.89
44103;BME280;29769;42.178;24.742;2022-10-17T11:34:00;101143.00;;;37.03;14.20
44103;BME280;29769;42.178;24.742;2022-10-17T11:36:55;101127.41;;;36.86;14.10
44103;BME280;29769;42.178;24.742;2022-10-17T11:39:50;101130.03;;;37.82;14.19
44103;BME280;29769;42.178;24.742;2022-10-17T11:43:09;101135.25;;;37.42;14.43
44103;BME280;29769;42.178;24.742;2022-10-17T11:46:18;101127.75;;;38.12;14.11
44103;BME280;29769;42.178;24.742;2022-10-17T11:49:13;101131.94;;;37.56;14.35
44103;BME280;29769;42.178;24.742;2022-10-17T11:52:12;101133.88;;;35.77;15.51
44103;BME280;29769;42.178;24.742;2022-10-17T11:55:09;101127.13;;;32.85;17.35
44103;BME280;29769;42.178;24.742;2022-10-17T12:04:03;101119.47;;;35.00;16.11
44103;BME280;29769;42.178;24.742;2022-10-17T12:07:26;101120.78;;;35.24;15.97
44103;BME280;29769;42.178;24.742;2022-10-17T12:10:59;101116.72;;;35.38;15.64
44103;BME280;29769;42.178;24.742;2022-10-17T12:13:45;101108.53;;;35.75;15.80
44103;BME280;29769;42.178;24.742;2022-10-17T12:19:26;101102.88;;;37.02;14.77
44103;BME280;29769;42.178;24.742;2022-10-17T12:22:21;101114.41;;;37.83;14.62
44103;BME280;29769;42.178;24.742;2022-10-17T12:25:25;101110.09;;;38.31;14.09
44103;BME280;29769;42.178;24.742;2022-10-17T12:28:44;101096.91;;;38.42;14.18
44103;BME280;29769;42.178;24.742;2022-10-17T12:31:30;101102.66;;;36.42;15.21
44103;BME280;29769;42.178;24.742;2022-10-17T12:34:16;101090.88;;;35.87;15.91
44103;BME280;29769;42.178;24.742;2022-10-17T12:37:10;101103.34;;;35.99;15.58
44103;BME280;29769;42.178;24.742;2022-10-17T12:39:55;101108.84;;;36.44;15.35
44103;BME280;29769;42.178;24.742;2022-10-17T12:42:48;101096.25;;;36.87;15.35
44103;BME280;29769;42.178;24.742;2022-10-17T12:45:47;101099.94;;;36.78;15.40
44103;BME280;29769;42.178;24.742;2022-10-17T12:51:20;101084.78;;;38.03;14.45
44103;BME280;29769;42.178;24.742;2022-10-17T12:54:11;101096.84;;;38.18;14.13
44103;BME280;29769;42.178;24.742;2022-10-17T12:56:58;101098.59;;;36.29;15.20
44103;BME280;29769;42.178;24.742;2022-10-17T12:59:43;101103.47;;;33.06;17.60
44103;BME280;29769;42.178;24.742;2022-10-17T13:02:29;101100.53;;;33.40;17.66
44103;BME280;29769;42.178;24.742;2022-10-17T13:05:21;101102.09;;;34.03;16.77
44103;BME280;29769;42.178;24.742;2022-10-17T13:08:15;101104.06;;;35.28;16.36
44103;BME280;29769;42.178;24.742;2022-10-17T13:11:01;101101.06;;;35.58;16.26
44103;BME280;29769;42.178;24.742;2022-10-17T13:13:48;101099.06;;;36.42;15.58
44103;BME280;29769;42.178;24.742;2022-10-17T13:16:38;101100.59;;;36.44;15.67
44103;BME280;29769;42.178;24.742;2022-10-17T13:19:27;101100.59;;;35.99;15.77
44103;BME280;29769;42.178;24.742;2022-10-17T13:22:24;101108.97;;;35.24;16.59
44103;BME280;29769;42.178;24.742;2022-10-17T13:25:18;101108.25;;;34.55;16.62
44103;BME280;29769;42.178;24.742;2022-10-17T13:28:06;101101.84;;;33.15;17.49
44103;BME280;29769;42.178;24.742;2022-10-17T13:30:54;101105.09;;;31.91;18.74
44103;BME280;29769;42.178;24.742;2022-10-17T13:33:40;101101.84;;;32.62;18.09
44103;BME280;29769;42.178;24.742;2022-10-17T13:36:27;101100.88;;;31.87;18.91
44103;BME280;29769;42.178;24.742;2022-10-17T13:39:17;101104.53;;;32.31;18.94
44103;BME280;29769;42.178;24.742;2022-10-17T13:42:03;101098.06;;;32.43;18.53
44103;BME280;29769;42.178;24.742;2022-10-17T13:44:49;101111.97;;;31.40;19.05
44103;BME280;29769;42.178;24.742;2022-10-17T13:47:36;101107.41;;;30.83;19.80
44103;BME280;29769;42.178;24.742;2022-10-17T13:50:41;101103.22;;;31.36;19.46
44103;BME280;29769;42.178;24.742;2022-10-17T13:53:37;101085.66;;;31.85;19.15
44103;BME280;29769;42.178;24.742;2022-10-17T13:56:25;101091.19;;;32.16;19.12
44103;BME280;29769;42.178;24.742;2022-10-17T13:59:21;101083.78;;;32.18;19.24
44103;BME280;29769;42.178;24.742;2022-10-17T14:02:16;101087.00;;;32.55;18.44
44103;BME280;29769;42.178;24.742;2022-10-17T14:05:11;101093.75;;;32.72;18.93
44103;BME280;29769;42.178;24.742;2022-10-17T14:08:03;101085.44;;;32.74;18.49
44103;BME280;29769;42.178;24.742;2022-10-17T14:10:48;101079.88;;;31.78;19.34
44103;BME280;29769;42.178;24.742;2022-10-17T14:13:33;101093.19;;;31.37;19.75
44103;BME280;29769;42.178;24.742;2022-10-17T14:16:20;101095.66;;;30.82;20.19
44103;BME280;29769;42.178;24.742;2022-10-17T14:19:19;101089.38;;;29.49;21.42
44103;BME280;29769;42.178;24.742;2022-10-17T14:25:27;101092.00;;;29.38;21.43
44103;BME280;29769;42.178;24.742;2022-10-17T14:28:14;101102.00;;;28.85;21.85
44103;BME280;29769;42.178;24.742;2022-10-17T14:33:57;101095.25;;;26.39;25.01
44103;BME280;29769;42.178;24.742;2022-10-17T14:36:48;101096.63;;;26.30;24.83
44103;BME280;29769;42.178;24.742;2022-10-17T14:39:34;101101.94;;;26.16;25.09
44103;BME280;29769;42.178;24.742;2022-10-17T14:42:20;101104.03;;;26.27;25.00
44103;BME280;29769;42.178;24.742;2022-10-17T14:45:11;101105.31;;;26.51;25.22
44103;BME280;29769;42.178;24.742;2022-10-17T14:48:14;101096.84;;;26.57;24.72
44103;BME280;29769;42.178;24.742;2022-10-17T14:51:14;101108.41;;;26.59;25.12
44103;BME280;29769;42.178;24.742;2022-10-17T14:54:02;101111.50;;;26.06;25.83
44103;BME280;29769;42.178;24.742;2022-10-17T14:56:50;101091.22;;;25.83;26.15
44103;BME280;29769;42.178;24.742;2022-10-17T14:59:36;101112.69;;;25.69;26.79
44103;BME280;29769;42.178;24.742;2022-10-17T15:02:23;101102.25;;;25.30;27.21
44103;BME280;29769;42.178;24.742;2022-10-17T15:05:07;101113.56;;;24.85;27.52
44103;BME280;29769;42.178;24.742;2022-10-17T15:07:52;101101.22;;;24.64;28.26
44103;BME280;29769;42.178;24.742;2022-10-17T15:10:38;101115.13;;;24.38;28.53
44103;BME280;29769;42.178;24.742;2022-10-17T15:13:25;101120.31;;;24.23;28.95
44103;BME280;29769;42.178;24.742;2022-10-17T15:16:29;101124.50;;;23.91;29.40
44103;BME280;29769;42.178;24.742;2022-10-17T15:19:14;101126.97;;;23.59;30.26
44103;BME280;29769;42.178;24.742;2022-10-17T15:21:59;101115.28;;;23.21;30.60
44103;BME280;29769;42.178;24.742;2022-10-17T15:24:44;101126.47;;;22.90;31.25
44103;BME280;29769;42.178;24.742;2022-10-17T15:27:32;101124.31;;;22.56;32.03
44103;BME280;29769;42.178;24.742;2022-10-17T15:33:09;101116.34;;;21.66;33.73
44103;BME280;29769;42.178;24.742;2022-10-17T15:35:54;101123.25;;;21.25;34.77
44103;BME280;29769;42.178;24.742;2022-10-17T15:38:39;101108.63;;;20.84;35.31
44103;BME280;29769;42.178;24.742;2022-10-17T15:41:24;101126.53;;;20.56;36.20
44103;BME280;29769;42.178;24.742;2022-10-17T15:44:09;101125.72;;;20.26;36.85
44103;BME280;29769;42.178;24.742;2022-10-17T15:46:54;101124.75;;;20.01;37.49
44103;BME280;29769;42.178;24.742;2022-10-17T15:49:40;101124.50;;;19.80;37.92
44103;BME280;29769;42.178;24.742;2022-10-17T15:52:25;101133.00;;;19.64;38.38
44103;BME280;29769;42.178;24.742;2022-10-17T15:55:10;101138.00;;;19.45;39.02
44103;BME280;29769;42.178;24.742;2022-10-17T15:57:56;101133.19;;;19.25;39.97
44103;BME280;29769;42.178;24.742;2022-10-17T16:00:40;101143.41;;;19.09;41.03
44103;BME280;29769;42.178;24.742;2022-10-17T16:03:25;101145.78;;;18.88;41.78